Time;durP1;ratioP1;P1;durP2;ratioP2;P2;SDS_P1;SDS_P2;PMS_P1;PMS_P2;Temp;Humidity;BMP_temperature;BMP_pressure;BME280_temperature;BME280_humidity;BME280_pressure;Samples;Min_cycle;Max_cycle;Signal;HPM_P1;HPM_P2
2021/03/29 00:00:11;;;;;;;12.35;5.13;;;;;;;;;;5039616;28;20268;-71
2021/03/29 00:02:36;;;;;;;13.85;5.80;;;;;;;;;;5030403;28;20662;-71
2021/03/29 00:05:02;;;;;;;13.50;5.47;;;;;;;;;;5038315;28;20181;-71
2021/03/29 00:07:29;;;;;;;14.07;5.47;;;;;;;;;;5025542;28;20185;-71
2021/03/29 00:09:56;;;;;;;14.30;5.85;;;;;;;;;;5032298;28;20185;-70
2021/03/29 00:12:22;;;;;;;13.63;6.10;;;;;;;;;;5027375;28;20267;-70
2021/03/29 00:14:49;;;;;;;15.73;6.80;;;;;;;;;;5037949;28;20834;-70
2021/03/29 00:17:15;;;;;;;15.90;6.20;;;;;;;;;;5028695;28;20308;-70
2021/03/29 00:19:41;;;;;;;13.70;5.97;;;;;;;;;;5036772;28;20328;-70
2021/03/29 00:22:07;;;;;;;10.93;6.03;;;;;;;;;;5023485;28;20290;-70
2021/03/29 00:24:33;;;;;;;18.48;6.10;;;;;;;;;;5041925;28;20265;-70
2021/03/29 00:27:01;;;;;;;16.15;6.38;;;;;;;;;;5032578;28;20249;-70
2021/03/29 00:29:26;;;;;;;12.05;5.70;;;;;;;;;;5029295;28;20217;-70
2021/03/29 00:31:52;;;;;;;10.80;5.40;;;;;;;;;;5044407;28;20648;-70
2021/03/29 00:34:18;;;;;;;16.08;5.18;;;;;;;;;;5029331;28;20189;-70
2021/03/29 00:36:46;;;;;;;13.65;5.53;;;;;;;;;;5042957;28;20225;-70
2021/03/29 00:39:13;;;;;;;15.82;5.57;;;;;;;;;;5029701;28;20231;-70
2021/03/29 00:41:39;;;;;;;14.18;5.20;;;;;;;;;;5036818;28;20235;-71
2021/03/29 00:44:06;;;;;;;15.02;4.95;;;;;;;;;;5026595;28;20661;-71
2021/03/29 00:46:32;;;;;;;17.15;5.82;;;;;;;;;;5037717;28;20174;-70
2021/03/29 00:48:58;;;;;;;10.98;5.13;;;;;;;;;;5029350;28;20321;-70
2021/03/29 00:51:29;;;;;;;13.80;4.72;;;;;;;;;;5037940;28;20694;-70
2021/03/29 00:54:06;;;;;;;17.05;5.20;;;;;;;;;;5031684;28;20284;-71
2021/03/29 00:56:33;;;;;;;16.48;5.40;;;;;;;;;;5037052;28;20213;-71
2021/03/29 00:58:59;;;;;;;12.05;5.18;;;;;;;;;;5030051;28;20233;-71
2021/03/29 01:01:27;;;;;;;15.73;4.80;;;;;;;;;;5041901;28;20532;-70
2021/03/29 01:04:01;;;;;;;12.50;4.78;;;;;;;;;;5038662;28;20212;-70
2021/03/29 01:06:34;;;;;;;12.77;4.38;;;;;;;;;;5039478;28;20174;-70
2021/03/29 01:09:05;;;;;;;11.25;4.70;;;;;;;;;;5039149;28;20597;-71
2021/03/29 01:11:34;;;;;;;14.95;4.70;;;;;;;;;;5038161;28;20199;-70
2021/03/29 01:14:06;;;;;;;16.00;4.95;;;;;;;;;;5037000;28;20693;-70
2021/03/29 01:16:42;;;;;;;11.85;4.40;;;;;;;;;;5032830;28;20629;-70
2021/03/29 01:19:25;;;;;;;17.07;4.90;;;;;;;;;;5041116;28;20287;-71
2021/03/29 01:22:04;;;;;;;12.73;4.55;;;;;;;;;;5028458;28;20701;-71
2021/03/29 01:24:44;;;;;;;11.20;4.63;;;;;;;;;;5045135;28;20220;-71
2021/03/29 01:27:14;;;;;;;10.38;4.53;;;;;;;;;;5034378;28;20192;-71
2021/03/29 01:29:40;;;;;;;11.50;4.85;;;;;;;;;;5043812;28;20295;-71
2021/03/29 01:32:06;;;;;;;11.10;4.35;;;;;;;;;;5031882;28;20672;-71
2021/03/29 01:34:36;;;;;;;14.45;4.88;;;;;;;;;;5041297;28;20194;-71
2021/03/29 01:37:02;;;;;;;14.70;4.15;;;;;;;;;;5037234;28;20275;-70
2021/03/29 01:39:29;;;;;;;12.25;4.38;;;;;;;;;;5036779;28;20248;-69
2021/03/29 01:41:56;;;;;;;14.20;4.43;;;;;;;;;;5035296;28;20230;-70
2021/03/29 01:44:21;;;;;;;10.45;3.88;;;;;;;;;;5039058;28;20672;-70
2021/03/29 01:46:47;;;;;;;12.85;4.82;;;;;;;;;;5037006;28;20235;-70
2021/03/29 01:49:13;;;;;;;11.48;4.15;;;;;;;;;;5038917;28;20550;-70
2021/03/29 01:51:39;;;;;;;11.10;4.17;;;;;;;;;;5015285;28;20545;-70
2021/03/29 01:54:05;;;;;;;16.63;4.97;;;;;;;;;;5039758;28;20298;-69
2021/03/29 01:56:31;;;;;;;17.13;4.78;;;;;;;;;;5044019;28;20198;-71
2021/03/29 01:58:56;;;;;;;11.43;4.43;;;;;;;;;;5033640;28;20719;-70
2021/03/29 02:01:22;;;;;;;13.10;4.18;;;;;;;;;;5036443;28;20197;-70
2021/03/29 02:03:48;;;;;;;16.83;4.50;;;;;;;;;;5033739;28;20339;-70
2021/03/29 02:06:16;;;;;;;14.97;4.53;;;;;;;;;;5037548;28;20585;-70
2021/03/29 02:08:43;;;;;;;13.70;4.30;;;;;;;;;;5029645;28;20216;-70
2021/03/29 02:11:09;;;;;;;17.43;4.90;;;;;;;;;;5039233;28;20175;-70
2021/03/29 02:13:40;;;;;;;13.83;5.27;;;;;;;;;;5027539;28;20265;-70
2021/03/29 02:16:08;;;;;;;17.30;4.50;;;;;;;;;;5035651;28;20202;-70
2021/03/29 02:18:53;;;;;;;17.08;4.80;;;;;;;;;;5032056;28;20237;-70
2021/03/29 02:21:22;;;;;;;14.15;4.53;;;;;;;;;;5038869;28;20197;-70
2021/03/29 02:23:50;;;;;;;14.02;5.00;;;;;;;;;;5031689;28;20192;-70
2021/03/29 02:26:19;;;;;;;18.10;5.18;;;;;;;;;;5035722;28;20545;-70
2021/03/29 02:28:45;;;;;;;13.43;4.72;;;;;;;;;;5029442;28;20232;-70
2021/03/29 02:31:11;;;;;;;14.37;5.03;;;;;;;;;;5036735;28;22780;-71
2021/03/29 02:33:38;;;;;;;16.15;5.28;;;;;;;;;;5029554;28;20273;-70
2021/03/29 02:36:04;;;;;;;14.27;4.93;;;;;;;;;;5033568;28;20243;-70
2021/03/29 02:38:31;;;;;;;13.77;4.85;;;;;;;;;;5038291;28;20185;-71
2021/03/29 02:40:57;;;;;;;19.53;5.50;;;;;;;;;;5028657;28;20260;-70
2021/03/29 02:43:23;;;;;;;12.80;5.03;;;;;;;;;;5034799;28;20676;-70
2021/03/29 02:45:55;;;;;;;20.08;5.30;;;;;;;;;;5032085;28;20186;-71
2021/03/29 02:48:24;;;;;;;19.00;5.43;;;;;;;;;;5038885;28;20260;-70
2021/03/29 02:50:51;;;;;;;15.30;5.40;;;;;;;;;;5037209;28;20296;-70
2021/03/29 02:53:20;;;;;;;15.80;5.30;;;;;;;;;;5041477;28;20209;-71
2021/03/29 02:55:47;;;;;;;13.35;4.88;;;;;;;;;;5030358;28;20243;-71
2021/03/29 02:58:15;;;;;;;17.65;6.28;;;;;;;;;;5035925;28;20186;-71
2021/03/29 03:00:41;;;;;;;16.88;5.00;;;;;;;;;;5032868;28;20186;-71
2021/03/29 03:03:08;;;;;;;13.05;5.25;;;;;;;;;;5033222;28;20254;-71
2021/03/29 03:05:35;;;;;;;13.18;5.10;;;;;;;;;;5027111;28;20189;-71
2021/03/29 03:08:01;;;;;;;13.53;5.27;;;;;;;;;;5037603;28;20549;-71
2021/03/29 03:10:29;;;;;;;15.02;4.82;;;;;;;;;;5026521;28;20580;-71
2021/03/29 03:12:56;;;;;;;16.83;4.77;;;;;;;;;;5039117;28;20212;-70
2021/03/29 03:15:24;;;;;;;11.73;4.57;;;;;;;;;;5038748;28;20196;-70
2021/03/29 03:17:51;;;;;;;17.20;5.53;;;;;;;;;;5025497;28;20189;-71
2021/03/29 03:20:17;;;;;;;18.40;5.00;;;;;;;;;;5034753;28;20734;-71
2021/03/29 03:22:56;;;;;;;17.27;5.43;;;;;;;;;;5027593;28;20212;-71
2021/03/29 03:25:29;;;;;;;13.90;5.57;;;;;;;;;;5038584;28;20182;-71
2021/03/29 03:27:56;;;;;;;13.90;4.72;;;;;;;;;;5029174;28;20243;-71
2021/03/29 03:30:25;;;;;;;12.75;4.95;;;;;;;;;;5033002;28;20670;-71
2021/03/29 03:32:51;;;;;;;14.50;5.05;;;;;;;;;;5027458;28;20656;-69
2021/03/29 03:35:19;;;;;;;15.27;5.70;;;;;;;;;;5038603;28;20185;-70
2021/03/29 03:37:52;;;;;;;15.40;4.53;;;;;;;;;;5026751;28;20477;-70
2021/03/29 03:40:22;;;;;;;11.23;4.30;;;;;;;;;;5043171;28;20185;-70
2021/03/29 03:42:50;;;;;;;15.55;5.47;;;;;;;;;;5031406;28;20240;-70
2021/03/29 03:45:16;;;;;;;14.15;4.95;;;;;;;;;;5039552;28;20177;-70
2021/03/29 03:47:43;;;;;;;15.10;4.67;;;;;;;;;;5033129;28;20700;-71
2021/03/29 03:50:10;;;;;;;19.13;5.40;;;;;;;;;;5036252;28;20189;-71
2021/03/29 03:52:38;;;;;;;15.23;5.32;;;;;;;;;;5031487;28;20190;-71
2021/03/29 03:55:05;;;;;;;14.98;4.75;;;;;;;;;;5037295;28;20572;-70
2021/03/29 03:57:30;;;;;;;15.07;5.20;;;;;;;;;;5037611;28;20300;-71
2021/03/29 03:59:56;;;;;;;14.90;4.88;;;;;;;;;;5031898;28;20542;-70
2021/03/29 04:02:22;;;;;;;15.70;4.20;;;;;;;;;;5036682;28;20785;-70
2021/03/29 04:04:47;;;;;;;13.65;5.25;;;;;;;;;;5020787;28;20206;-70
2021/03/29 04:07:12;;;;;;;15.52;5.35;;;;;;;;;;5032695;28;20180;-70
2021/03/29 04:09:45;;;;;;;11.70;4.93;;;;;;;;;;5033022;28;20209;-70
2021/03/29 04:12:11;;;;;;;15.55;5.15;;;;;;;;;;5037684;28;20540;-70
2021/03/29 04:14:38;;;;;;;14.63;5.28;;;;;;;;;;5030926;28;20206;-70
2021/03/29 04:17:04;;;;;;;19.08;5.53;;;;;;;;;;5041522;28;20601;-70
2021/03/29 04:19:29;;;;;;;14.23;5.10;;;;;;;;;;5025726;28;20702;-70
2021/03/29 04:21:55;;;;;;;14.93;5.13;;;;;;;;;;5040072;28;20272;-70
2021/03/29 04:24:20;;;;;;;14.55;5.35;;;;;;;;;;5030008;28;20598;-70
2021/03/29 04:26:46;;;;;;;10.40;4.97;;;;;;;;;;5036165;28;20276;-70
2021/03/29 04:29:11;;;;;;;13.23;4.70;;;;;;;;;;5030786;28;20186;-70
2021/03/29 04:31:36;;;;;;;19.40;5.40;;;;;;;;;;5036516;28;20283;-70
2021/03/29 04:34:02;;;;;;;14.90;5.28;;;;;;;;;;5035582;28;20190;-71
2021/03/29 04:36:27;;;;;;;13.75;5.82;;;;;;;;;;5033621;28;20256;-70
2021/03/29 04:38:52;;;;;;;15.52;5.05;;;;;;;;;;5043225;28;20268;-70
2021/03/29 04:41:18;;;;;;;14.38;5.10;;;;;;;;;;5034144;28;20522;-70
2021/03/29 04:43:43;;;;;;;18.20;5.37;;;;;;;;;;5038444;28;20197;-70
2021/03/29 04:46:09;;;;;;;16.53;5.57;;;;;;;;;;5034369;28;20186;-70
2021/03/29 04:48:34;;;;;;;14.48;5.03;;;;;;;;;;5035786;28;20268;-70
2021/03/29 04:50:59;;;;;;;13.75;5.35;;;;;;;;;;5032051;28;20566;-70
2021/03/29 04:53:25;;;;;;;12.95;5.72;;;;;;;;;;5039199;28;20173;-70
2021/03/29 04:55:50;;;;;;;18.60;5.32;;;;;;;;;;5032283;28;20241;-70
2021/03/29 04:58:15;;;;;;;16.25;4.90;;;;;;;;;;5042745;28;20182;-70
2021/03/29 05:00:41;;;;;;;14.98;5.07;;;;;;;;;;5042127;28;20205;-70
2021/03/29 05:03:06;;;;;;;18.07;4.80;;;;;;;;;;5034139;28;20206;-70
2021/03/29 05:05:31;;;;;;;12.27;5.27;;;;;;;;;;5041737;28;20182;-70
2021/03/29 05:07:57;;;;;;;15.88;4.57;;;;;;;;;;5032609;28;20193;-70
2021/03/29 05:10:22;;;;;;;15.23;4.82;;;;;;;;;;5044562;28;20184;-70
2021/03/29 05:12:47;;;;;;;13.70;4.75;;;;;;;;;;5032425;28;20197;-70
2021/03/29 05:15:14;;;;;;;11.80;4.40;;;;;;;;;;5034503;28;20216;-70
2021/03/29 05:17:40;;;;;;;12.23;4.77;;;;;;;;;;4331577;28;10000744;-71
2021/03/29 05:20:07;;;;;;;16.27;4.70;;;;;;;;;;5040854;28;20887;-71
2021/03/29 05:22:33;;;;;;;11.90;4.05;;;;;;;;;;5029695;28;20668;-70
2021/03/29 05:24:58;;;;;;;8.25;3.90;;;;;;;;;;5030766;28;20186;-71
2021/03/29 05:27:23;;;;;;;11.07;4.75;;;;;;;;;;5028765;28;20213;-71
2021/03/29 05:29:49;;;;;;;11.57;3.92;;;;;;;;;;5032538;28;20182;-71
2021/03/29 05:32:20;;;;;;;14.32;4.28;;;;;;;;;;5032029;28;20327;-71
2021/03/29 05:34:47;;;;;;;13.48;5.20;;;;;;;;;;5029880;28;20178;-70
2021/03/29 05:37:14;;;;;;;13.48;4.30;;;;;;;;;;5026055;28;20644;-70
2021/03/29 05:39:40;;;;;;;13.10;4.47;;;;;;;;;;5023556;28;20190;-70
2021/03/29 05:42:08;;;;;;;10.55;4.20;;;;;;;;;;5032520;28;20204;-70
2021/03/29 05:44:35;;;;;;;12.45;4.45;;;;;;;;;;5031327;28;20196;-70
2021/03/29 05:47:01;;;;;;;14.45;4.90;;;;;;;;;;5040183;28;20316;-71
2021/03/29 05:49:26;;;;;;;9.43;4.50;;;;;;;;;;5028089;28;20736;-70
2021/03/29 05:51:52;;;;;;;13.18;4.50;;;;;;;;;;5042141;28;20227;-69
2021/03/29 05:54:17;;;;;;;16.00;4.55;;;;;;;;;;5029374;28;20513;-70
2021/03/29 05:56:43;;;;;;;10.85;3.97;;;;;;;;;;4688886;28;10000749;-69
2021/03/29 05:59:17;;;;;;;10.57;4.65;;;;;;;;;;5032505;28;20198;-70
2021/03/29 06:01:47;;;;;;;14.00;4.40;;;;;;;;;;5036660;28;20202;-69
2021/03/29 06:04:14;;;;;;;16.27;4.22;;;;;;;;;;5025096;28;20768;-69
2021/03/29 06:06:40;;;;;;;12.02;4.10;;;;;;;;;;5036468;28;20182;-70
2021/03/29 06:09:07;;;;;;;12.90;5.00;;;;;;;;;;5032623;28;20798;-70
2021/03/29 06:11:35;;;;;;;14.00;4.53;;;;;;;;;;5029909;28;20235;-70
2021/03/29 06:14:20;;;;;;;10.35;3.97;;;;;;;;;;5037275;28;20228;-70
2021/03/29 06:17:08;;;;;;;17.17;4.45;;;;;;;;;;5035850;28;20229;-71
2021/03/29 06:19:58;;;;;;;14.60;4.40;;;;;;;;;;5032762;28;20225;-71
2021/03/29 06:22:28;;;;;;;10.48;4.32;;;;;;;;;;5034967;28;20280;-71
2021/03/29 06:25:08;;;;;;;12.30;3.92;;;;;;;;;;5034225;28;20236;-70
2021/03/29 06:27:46;;;;;;;10.73;4.20;;;;;;;;;;5035759;28;20252;-71
2021/03/29 06:30:32;;;;;;;9.68;3.88;;;;;;;;;;5040212;28;20691;-70
2021/03/29 06:33:01;;;;;;;10.15;4.10;;;;;;;;;;5039733;28;20637;-70
2021/03/29 06:35:35;;;;;;;10.65;3.72;;;;;;;;;;5040412;28;20186;-70
2021/03/29 06:38:04;;;;;;;13.43;4.18;;;;;;;;;;5043707;28;20232;-70
2021/03/29 06:40:29;;;;;;;12.32;4.18;;;;;;;;;;5034168;28;20221;-70
2021/03/29 06:42:54;;;;;;;13.95;4.00;;;;;;;;;;5031504;28;20220;-70
2021/03/29 06:45:21;;;;;;;9.30;3.90;;;;;;;;;;5042672;28;20240;-70
2021/03/29 06:47:47;;;;;;;13.13;3.60;;;;;;;;;;5027193;28;20229;-71
2021/03/29 06:50:22;;;;;;;12.77;4.20;;;;;;;;;;5044557;28;20189;-70
2021/03/29 06:52:48;;;;;;;9.73;3.65;;;;;;;;;;5028854;28;20190;-69
2021/03/29 06:55:19;;;;;;;15.13;3.22;;;;;;;;;;5042877;28;20213;-69
2021/03/29 06:57:45;;;;;;;12.43;3.92;;;;;;;;;;5030127;28;20283;-70
2021/03/29 07:00:27;;;;;;;13.35;3.50;;;;;;;;;;5038893;28;20181;-70
2021/03/29 07:02:53;;;;;;;7.63;3.42;;;;;;;;;;5032537;28;20215;-70
2021/03/29 07:05:19;;;;;;;13.82;3.53;;;;;;;;;;5038765;28;20227;-70
2021/03/29 07:07:44;;;;;;;15.57;3.67;;;;;;;;;;5027343;28;20575;-70
2021/03/29 07:10:11;;;;;;;15.32;4.22;;;;;;;;;;5032396;28;20193;-70
2021/03/29 07:12:40;;;;;;;13.02;3.67;;;;;;;;;;5032760;28;20189;-70
2021/03/29 07:15:08;;;;;;;11.80;3.90;;;;;;;;;;5038301;28;20216;-69
2021/03/29 07:17:39;;;;;;;11.38;3.00;;;;;;;;;;5028467;28;20205;-69
2021/03/29 07:20:10;;;;;;;11.63;4.03;;;;;;;;;;5039905;28;20670;-69
2021/03/29 07:22:38;;;;;;;7.68;3.80;;;;;;;;;;5032569;28;20296;-70
2021/03/29 07:25:07;;;;;;;10.15;3.70;;;;;;;;;;5031435;28;20215;-70
2021/03/29 07:27:38;;;;;;;16.35;3.70;;;;;;;;;;5033088;28;20533;-70
2021/03/29 07:30:05;;;;;;;11.77;3.78;;;;;;;;;;5033682;28;20185;-70
2021/03/29 07:32:36;;;;;;;10.75;3.42;;;;;;;;;;5037727;28;20591;-70
2021/03/29 07:35:02;;;;;;;13.32;3.40;;;;;;;;;;5027618;28;20197;-70
2021/03/29 07:37:44;;;;;;;9.60;3.50;;;;;;;;;;5038326;28;20360;-70
2021/03/29 07:40:15;;;;;;;16.65;3.65;;;;;;;;;;5029446;28;20589;-70
2021/03/29 07:42:42;;;;;;;12.20;3.58;;;;;;;;;;5033415;28;20185;-70
2021/03/29 07:45:11;;;;;;;8.95;3.05;;;;;;;;;;5027466;28;20189;-70
2021/03/29 07:47:51;;;;;;;11.10;3.47;;;;;;;;;;5031677;28;20238;-70
2021/03/29 07:50:29;;;;;;;9.75;3.47;;;;;;;;;;5023983;28;20636;-71
2021/03/29 07:52:58;;;;;;;11.75;3.25;;;;;;;;;;5037020;28;20204;-70
2021/03/29 07:55:27;;;;;;;10.18;3.65;;;;;;;;;;5026487;28;20189;-70
2021/03/29 07:57:53;;;;;;;13.48;3.72;;;;;;;;;;5032140;28;20214;-70
2021/03/29 08:00:24;;;;;;;10.88;3.50;;;;;;;;;;5026739;28;20216;-70
2021/03/29 08:02:53;;;;;;;8.15;2.90;;;;;;;;;;5033745;28;20192;-70
2021/03/29 08:05:37;;;;;;;14.32;3.72;;;;;;;;;;5026055;28;20543;-71
2021/03/29 08:08:23;;;;;;;16.83;3.60;;;;;;;;;;5039723;28;20519;-70
2021/03/29 08:11:05;;;;;;;12.57;3.60;;;;;;;;;;5022232;28;20194;-70
2021/03/29 08:13:48;;;;;;;12.20;3.67;;;;;;;;;;5035206;28;20270;-70
2021/03/29 08:16:24;;;;;;;13.15;3.80;;;;;;;;;;5021555;28;20615;-71
2021/03/29 08:19:17;;;;;;;12.88;3.70;;;;;;;;;;5035983;28;20185;-70
2021/03/29 08:21:42;;;;;;;7.95;3.22;;;;;;;;;;5028438;28;20661;-70
2021/03/29 08:24:24;;;;;;;8.63;3.05;;;;;;;;;;5030285;28;20194;-70
2021/03/29 08:26:51;;;;;;;10.00;3.22;;;;;;;;;;5026907;28;20185;-70
2021/03/29 08:29:21;;;;;;;7.72;3.05;;;;;;;;;;5036433;28;20656;-70
2021/03/29 08:32:10;;;;;;;6.72;3.33;;;;;;;;;;5027148;28;20220;-70
2021/03/29 08:34:43;;;;;;;8.95;3.33;;;;;;;;;;5030162;28;20184;-70
2021/03/29 08:37:11;;;;;;;8.45;3.33;;;;;;;;;;5027633;28;20205;-70
2021/03/29 08:39:41;;;;;;;10.88;3.40;;;;;;;;;;5034482;28;20276;-70
2021/03/29 08:42:07;;;;;;;19.75;3.85;;;;;;;;;;5030710;28;20203;-70
2021/03/29 08:44:41;;;;;;;9.13;4.00;;;;;;;;;;5035594;28;20240;-70
2021/03/29 08:47:14;;;;;;;9.65;3.25;;;;;;;;;;5030775;28;20225;-69
2021/03/29 08:49:40;;;;;;;8.90;3.47;;;;;;;;;;5031918;28;20645;-70
2021/03/29 08:52:07;;;;;;;10.98;3.55;;;;;;;;;;5035148;28;20202;-70
2021/03/29 08:54:33;;;;;;;10.77;3.42;;;;;;;;;;5030376;28;20258;-69
2021/03/29 08:57:04;;;;;;;9.90;3.25;;;;;;;;;;5042882;28;20549;-69
2021/03/29 08:59:30;;;;;;;12.20;3.90;;;;;;;;;;5028440;28;20181;-70
2021/03/29 09:01:55;;;;;;;11.38;3.80;;;;;;;;;;5036832;28;20518;-70
2021/03/29 09:04:21;;;;;;;12.85;3.80;;;;;;;;;;5029630;28;20228;-70
2021/03/29 09:06:55;;;;;;;8.77;3.20;;;;;;;;;;5035270;28;20209;-70
2021/03/29 09:09:22;;;;;;;10.20;3.35;;;;;;;;;;5029371;28;20216;-70
2021/03/29 09:11:49;;;;;;;11.77;3.28;;;;;;;;;;5035073;28;20185;-70
2021/03/29 09:14:17;;;;;;;12.50;3.50;;;;;;;;;;5034165;28;20216;-70
2021/03/29 09:16:45;;;;;;;8.40;2.92;;;;;;;;;;5036902;28;20317;-70
2021/03/29 09:19:15;;;;;;;10.80;3.88;;;;;;;;;;5031139;28;20189;-70
2021/03/29 09:21:41;;;;;;;8.40;3.10;;;;;;;;;;5038955;28;20189;-70
2021/03/29 09:24:24;;;;;;;11.10;3.67;;;;;;;;;;5030395;28;20200;-70
2021/03/29 09:27:01;;;;;;;12.00;3.85;;;;;;;;;;5039015;28;20178;-70
2021/03/29 09:29:37;;;;;;;8.55;3.78;;;;;;;;;;5028993;28;20188;-70
2021/03/29 09:32:07;;;;;;;11.52;3.28;;;;;;;;;;5037383;28;20293;-70
2021/03/29 09:34:33;;;;;;;9.45;3.70;;;;;;;;;;5036740;28;20208;-70
2021/03/29 09:36:59;;;;;;;10.18;3.20;;;;;;;;;;5036527;28;20212;-71
2021/03/29 09:39:29;;;;;;;13.52;3.78;;;;;;;;;;5045706;28;20563;-71
2021/03/29 09:41:54;;;;;;;6.38;3.13;;;;;;;;;;5033189;28;20219;-71
2021/03/29 09:44:30;;;;;;;10.00;3.58;;;;;;;;;;5040504;28;20186;-71
2021/03/29 09:46:58;;;;;;;10.82;3.58;;;;;;;;;;5033550;28;20268;-71
2021/03/29 09:49:24;;;;;;;10.93;3.70;;;;;;;;;;5044946;28;20188;-71
2021/03/29 09:52:00;;;;;;;8.48;3.42;;;;;;;;;;5027327;28;20193;-70
2021/03/29 09:54:28;;;;;;;12.43;3.72;;;;;;;;;;5040242;28;20543;-70
2021/03/29 09:56:56;;;;;;;10.93;3.80;;;;;;;;;;5036192;28;20673;-70
2021/03/29 09:59:30;;;;;;;12.68;4.00;;;;;;;;;;5037439;28;20186;-71
2021/03/29 10:01:58;;;;;;;9.13;3.33;;;;;;;;;;5032462;28;20254;-70
2021/03/29 10:04:23;;;;;;;8.90;3.53;;;;;;;;;;5035854;28;20209;-71
2021/03/29 10:06:56;;;;;;;10.05;3.60;;;;;;;;;;5032932;28;20187;-70
2021/03/29 10:09:33;;;;;;;11.68;3.60;;;;;;;;;;5038575;28;20189;-70
2021/03/29 10:11:59;;;;;;;10.30;3.65;;;;;;;;;;5032028;28;20185;-70
2021/03/29 10:14:32;;;;;;;9.07;3.67;;;;;;;;;;5038747;28;20575;-71
2021/03/29 10:16:58;;;;;;;7.85;3.53;;;;;;;;;;5026745;28;20299;-70
2021/03/29 10:19:33;;;;;;;7.75;3.70;;;;;;;;;;5033227;28;20189;-71
2021/03/29 10:22:03;;;;;;;10.05;3.50;;;;;;;;;;5032115;28;20192;-71
2021/03/29 10:24:34;;;;;;;9.95;3.78;;;;;;;;;;5041004;28;20280;-71
2021/03/29 10:27:06;;;;;;;7.63;3.47;;;;;;;;;;5039127;28;20181;-71
2021/03/29 10:29:37;;;;;;;9.35;3.75;;;;;;;;;;5038784;28;20202;-71
2021/03/29 10:32:09;;;;;;;12.40;3.92;;;;;;;;;;5037666;28;20185;-70
2021/03/29 10:34:38;;;;;;;15.77;3.70;;;;;;;;;;5031106;28;20272;-71
2021/03/29 10:37:17;;;;;;;9.88;4.63;;;;;;;;;;5035783;28;20308;-71
2021/03/29 10:39:42;;;;;;;11.50;4.50;;;;;;;;;;5026961;28;20201;-70
2021/03/29 10:42:08;;;;;;;10.23;3.70;;;;;;;;;;5037525;28;20490;-71
2021/03/29 10:44:34;;;;;;;9.13;3.67;;;;;;;;;;5025088;28;20193;-70
2021/03/29 10:46:59;;;;;;;10.23;3.97;;;;;;;;;;5035838;28;20240;-70
2021/03/29 10:49:24;;;;;;;12.18;3.90;;;;;;;;;;5029486;28;20174;-70
2021/03/29 10:51:50;;;;;;;8.00;3.25;;;;;;;;;;5040305;28;20235;-70
2021/03/29 10:54:15;;;;;;;12.32;3.45;;;;;;;;;;5030856;28;20220;-70
2021/03/29 10:56:41;;;;;;;10.35;3.65;;;;;;;;;;5037696;28;20209;-70
2021/03/29 10:59:06;;;;;;;10.20;4.10;;;;;;;;;;5028371;28;20178;-70
2021/03/29 11:01:31;;;;;;;10.73;4.47;;;;;;;;;;5041732;28;20189;-70
2021/03/29 11:03:57;;;;;;;9.02;3.88;;;;;;;;;;5022371;28;20214;-70
2021/03/29 11:06:22;;;;;;;8.27;3.45;;;;;;;;;;5041549;28;20174;-71
2021/03/29 11:08:47;;;;;;;10.43;3.90;;;;;;;;;;5034312;28;20649;-71
2021/03/29 11:11:13;;;;;;;10.45;3.88;;;;;;;;;;5029138;28;20186;-71
2021/03/29 11:13:38;;;;;;;9.40;3.70;;;;;;;;;;5031565;28;20189;-72
2021/03/29 11:16:07;;;;;;;11.20;3.67;;;;;;;;;;5027179;28;20241;-70
2021/03/29 11:18:32;;;;;;;10.30;4.05;;;;;;;;;;5035581;28;21819;-71
2021/03/29 11:20:58;;;;;;;12.77;4.68;;;;;;;;;;5027141;28;20542;-70
2021/03/29 11:23:25;;;;;;;7.72;3.47;;;;;;;;;;5031205;28;20649;-70
2021/03/29 11:25:53;;;;;;;10.48;4.00;;;;;;;;;;5032544;28;20189;-71
2021/03/29 11:28:18;;;;;;;11.07;4.30;;;;;;;;;;5033221;28;20198;-70
2021/03/29 11:30:43;;;;;;;10.43;4.03;;;;;;;;;;5032695;28;20204;-70
2021/03/29 11:33:09;;;;;;;7.50;3.75;;;;;;;;;;5034749;28;20197;-71
2021/03/29 11:35:34;;;;;;;8.93;4.05;;;;;;;;;;5033705;28;20177;-70
2021/03/29 11:38:00;;;;;;;7.40;3.85;;;;;;;;;;5039059;28;20247;-70
2021/03/29 11:40:25;;;;;;;8.95;3.80;;;;;;;;;;5036507;28;20189;-70
2021/03/29 11:42:50;;;;;;;10.63;3.72;;;;;;;;;;5029603;28;20228;-70
2021/03/29 11:45:16;;;;;;;11.23;3.33;;;;;;;;;;5038311;28;20652;-71
2021/03/29 11:47:41;;;;;;;8.90;3.40;;;;;;;;;;5029157;28;20316;-70
2021/03/29 11:50:11;;;;;;;9.75;3.47;;;;;;;;;;5036378;28;20602;-70
2021/03/29 11:52:36;;;;;;;7.38;3.63;;;;;;;;;;5034604;28;20333;-70
2021/03/29 11:55:02;;;;;;;10.90;4.05;;;;;;;;;;5038111;28;20654;-70
2021/03/29 11:57:28;;;;;;;8.38;4.00;;;;;;;;;;5029493;28;20217;-70
2021/03/29 11:59:54;;;;;;;8.10;3.47;;;;;;;;;;5041255;28;20239;-70
2021/03/29 12:02:37;;;;;;;9.70;3.60;;;;;;;;;;5031687;28;20186;-70
2021/03/29 12:05:09;;;;;;;11.82;4.03;;;;;;;;;;5036321;28;20193;-70
2021/03/29 12:07:46;;;;;;;8.07;4.22;;;;;;;;;;5027606;28;20543;-70
2021/03/29 12:12:56;;;;;;;12.02;3.90;;;;;;;;;;5027564;28;20284;-70
2021/03/29 12:15:22;;;;;;;8.73;3.60;;;;;;;;;;5038108;28;20277;-70
2021/03/29 12:17:49;;;;;;;10.55;3.90;;;;;;;;;;5033547;28;20590;-70
2021/03/29 12:20:15;;;;;;;14.70;3.95;;;;;;;;;;5038816;28;20304;-70
2021/03/29 12:22:44;;;;;;;7.65;3.75;;;;;;;;;;5042168;28;20573;-70
2021/03/29 12:25:16;;;;;;;9.55;3.60;;;;;;;;;;5030510;28;20255;-71
2021/03/29 12:27:42;;;;;;;9.27;3.90;;;;;;;;;;5041175;28;20226;-70
2021/03/29 12:30:14;;;;;;;9.68;3.47;;;;;;;;;;5027241;28;20182;-71
2021/03/29 12:32:41;;;;;;;9.65;4.18;;;;;;;;;;5034711;28;20209;-71
2021/03/29 12:35:10;;;;;;;10.32;3.67;;;;;;;;;;5027556;28;20190;-71
2021/03/29 12:37:36;;;;;;;10.90;4.07;;;;;;;;;;5031676;28;20212;-70
2021/03/29 12:40:08;;;;;;;9.55;4.05;;;;;;;;;;5024135;28;20190;-71
2021/03/29 12:42:39;;;;;;;9.15;3.67;;;;;;;;;;4339324;28;10000761;-71
2021/03/29 12:45:06;;;;;;;9.57;3.78;;;;;;;;;;5022127;28;20197;-71
2021/03/29 12:47:32;;;;;;;9.45;4.32;;;;;;;;;;5030007;28;20252;-71
2021/03/29 12:50:11;;;;;;;9.02;3.78;;;;;;;;;;5024709;28;20197;-70
2021/03/29 12:52:37;;;;;;;9.55;4.20;;;;;;;;;;5026258;28;20283;-70
2021/03/29 12:55:06;;;;;;;9.15;4.25;;;;;;;;;;5023577;28;20194;-70
2021/03/29 12:57:31;;;;;;;7.25;3.92;;;;;;;;;;5028822;28;20213;-71
2021/03/29 12:59:57;;;;;;;10.20;4.15;;;;;;;;;;5020124;28;20258;-71
2021/03/29 13:02:22;;;;;;;9.52;3.90;;;;;;;;;;5024616;28;20604;-69
2021/03/29 13:04:49;;;;;;;9.32;3.70;;;;;;;;;;5033273;28;20201;-69
2021/03/29 13:07:24;;;;;;;12.10;4.00;;;;;;;;;;5022814;28;20211;-70
2021/03/29 13:10:11;;;;;;;11.57;4.55;;;;;;;;;;5031192;28;20672;-70
2021/03/29 13:12:37;;;;;;;12.05;3.90;;;;;;;;;;5027052;28;20239;-71
2021/03/29 13:15:08;;;;;;;11.25;4.30;;;;;;;;;;5030822;28;20186;-70
2021/03/29 13:17:39;;;;;;;8.20;4.13;;;;;;;;;;5025776;28;20267;-70
2021/03/29 13:20:08;;;;;;;11.05;4.20;;;;;;;;;;5034003;28;20198;-71
2021/03/29 13:22:34;;;;;;;10.38;4.30;;;;;;;;;;5030038;28;20217;-70
2021/03/29 13:25:00;;;;;;;7.78;3.67;;;;;;;;;;5034825;28;20197;-70
2021/03/29 13:27:25;;;;;;;9.73;4.00;;;;;;;;;;5030125;28;20544;-71
2021/03/29 13:29:50;;;;;;;7.72;3.95;;;;;;;;;;5038001;28;20197;-71
2021/03/29 13:32:16;;;;;;;8.77;3.63;;;;;;;;;;5032020;28;20223;-70
2021/03/29 13:34:42;;;;;;;15.23;4.57;;;;;;;;;;5038017;28;20215;-70
2021/03/29 13:37:07;;;;;;;8.57;4.22;;;;;;;;;;5025274;28;20543;-70
2021/03/29 13:39:34;;;;;;;12.63;4.15;;;;;;;;;;5036283;28;20193;-70
2021/03/29 13:42:00;;;;;;;9.77;3.95;;;;;;;;;;5031170;28;20541;-71
2021/03/29 13:44:25;;;;;;;7.40;4.15;;;;;;;;;;5034946;28;20189;-70
2021/03/29 13:46:51;;;;;;;7.13;3.78;;;;;;;;;;5031081;28;20196;-70
2021/03/29 13:49:21;;;;;;;7.32;3.97;;;;;;;;;;5019314;28;20560;-70
2021/03/29 13:51:49;;;;;;;7.20;4.47;;;;;;;;;;5032369;28;20192;-70
2021/03/29 13:54:15;;;;;;;8.77;4.50;;;;;;;;;;5030016;28;20243;-70
2021/03/29 13:56:41;;;;;;;8.82;3.85;;;;;;;;;;5037477;28;20291;-70
2021/03/29 13:59:07;;;;;;;9.13;3.95;;;;;;;;;;5024524;28;20216;-70
2021/03/29 14:01:34;;;;;;;10.45;4.05;;;;;;;;;;5027984;28;20213;-70
2021/03/29 14:04:00;;;;;;;8.88;3.47;;;;;;;;;;5023344;28;20244;-71
2021/03/29 14:06:27;;;;;;;10.88;3.97;;;;;;;;;;5030673;28;20182;-70
2021/03/29 14:08:53;;;;;;;14.25;4.38;;;;;;;;;;5026089;28;20665;-70
2021/03/29 14:11:18;;;;;;;9.18;3.47;;;;;;;;;;5032191;28;20193;-71
2021/03/29 14:13:43;;;;;;;8.30;3.67;;;;;;;;;;5030274;28;20585;-71
2021/03/29 14:16:09;;;;;;;8.13;4.00;;;;;;;;;;5031733;28;20202;-71
2021/03/29 14:18:34;;;;;;;11.15;3.97;;;;;;;;;;5025820;28;20625;-71
2021/03/29 14:21:09;;;;;;;9.68;3.60;;;;;;;;;;5042117;28;20190;-70
2021/03/29 14:23:35;;;;;;;12.10;4.03;;;;;;;;;;5032894;28;20192;-71
2021/03/29 14:26:00;;;;;;;8.15;3.65;;;;;;;;;;5021522;28;20201;-70
2021/03/29 14:28:25;;;;;;;9.93;4.05;;;;;;;;;;5034965;28;20702;-70
2021/03/29 14:30:51;;;;;;;10.55;3.85;;;;;;;;;;5029213;28;20551;-71
2021/03/29 14:33:17;;;;;;;9.50;3.75;;;;;;;;;;5037601;28;20661;-71
2021/03/29 14:35:45;;;;;;;6.60;3.30;;;;;;;;;;5028103;28;20193;-71
2021/03/29 14:43:44;;;;;;;10.20;3.83;;;;;;;;;;5037360;28;20201;-70
2021/03/29 14:46:09;;;;;;;6.70;3.60;;;;;;;;;;5027346;28;20181;-71
2021/03/29 14:48:34;;;;;;;13.25;3.90;;;;;;;;;;5035651;28;20229;-70